San Fernando, Trinidad and Tobago
Current Conditions -  °F | °C
As of 2:00 PM on Thursday 23 Oct 2014 (Local Time) from TTPP Reporting Station
Few Clouds Few Clouds  
Wind Chill: 27°   Ceiling: Unl
Heat Index: 31°   Visibility: 6mi
Dew Point: 25°   Wind: 9mph
Humidity: 89%   Direction: 90°E
Pressure: 29.85"   Gusts: NA
Location:  10.25°N, 61.46°W
Report Text: TTPP 231800Z 09008KT 9999 FEW012CB 27/25 Q1011 NOSIG CB-NW
Loading
Personal Weather Stations






























Interactive Weather Map
Tropical Storm Tracking
New forecast layout! Learn more

10-Day Weather Forecast

Advertisements
Track Severe Weather on mobile